sensor_id;sensor_type;location;lat;lon;timestamp;P1;durP1;ratioP1;P2;durP2;ratioP2
50549;SDS011;36505;52.512;13.460;2023-04-10T00:00:14;30.73;;;13.50;;
50549;SDS011;36505;52.512;13.460;2023-04-10T00:02:40;23.17;;;12.23;;
50549;SDS011;36505;52.512;13.460;2023-04-10T00:05:06;29.90;;;13.60;;
50549;SDS011;36505;52.512;13.460;2023-04-10T00:07:32;30.40;;;14.68;;
50549;SDS011;36505;52.512;13.460;2023-04-10T00:09:58;24.23;;;12.32;;
50549;SDS011;36505;52.512;13.460;2023-04-10T00:12:23;28.00;;;12.40;;
50549;SDS011;36505;52.512;13.460;2023-04-10T00:14:49;24.45;;;13.57;;
50549;SDS011;36505;52.512;13.460;2023-04-10T00:17:14;23.83;;;12.65;;
50549;SDS011;36505;52.512;13.460;2023-04-10T00:19:40;22.63;;;12.88;;
50549;SDS011;36505;52.512;13.460;2023-04-10T00:22:05;23.40;;;13.15;;
50549;SDS011;36505;52.512;13.460;2023-04-10T00:24:30;32.00;;;13.02;;
50549;SDS011;36505;52.512;13.460;2023-04-10T00:26:56;32.88;;;14.70;;
50549;SDS011;36505;52.512;13.460;2023-04-10T00:29:21;29.48;;;14.13;;
50549;SDS011;36505;52.512;13.460;2023-04-10T00:31:47;25.20;;;12.88;;
50549;SDS011;36505;52.512;13.460;2023-04-10T00:34:13;27.63;;;13.75;;
50549;SDS011;36505;52.512;13.460;2023-04-10T00:36:39;26.83;;;14.25;;
50549;SDS011;36505;52.512;13.460;2023-04-10T00:39:04;30.58;;;14.15;;
50549;SDS011;36505;52.512;13.460;2023-04-10T00:41:31;26.85;;;13.30;;
50549;SDS011;36505;52.512;13.460;2023-04-10T00:43:56;25.50;;;13.27;;
50549;SDS011;36505;52.512;13.460;2023-04-10T00:46:23;24.33;;;13.07;;
50549;SDS011;36505;52.512;13.460;2023-04-10T00:48:49;30.63;;;13.98;;
50549;SDS011;36505;52.512;13.460;2023-04-10T00:51:16;29.08;;;13.40;;
50549;SDS011;36505;52.512;13.460;2023-04-10T00:53:44;23.50;;;13.25;;
50549;SDS011;36505;52.512;13.460;2023-04-10T00:56:15;27.08;;;13.85;;
50549;SDS011;36505;52.512;13.460;2023-04-10T00:58:41;29.77;;;14.00;;
50549;SDS011;36505;52.512;13.460;2023-04-10T01:01:06;28.58;;;13.02;;
50549;SDS011;36505;52.512;13.460;2023-04-10T01:03:32;31.15;;;13.48;;
50549;SDS011;36505;52.512;13.460;2023-04-10T01:08:38;30.42;;;13.10;;
50549;SDS011;36505;52.512;13.460;2023-04-10T01:13:54;26.40;;;12.85;;
50549;SDS011;36505;52.512;13.460;2023-04-10T01:16:29;29.45;;;13.63;;
50549;SDS011;36505;52.512;13.460;2023-04-10T01:21:35;30.58;;;13.77;;
50549;SDS011;36505;52.512;13.460;2023-04-10T01:24:19;27.98;;;13.65;;
50549;SDS011;36505;52.512;13.460;2023-04-10T01:29:40;25.83;;;12.93;;
50549;SDS011;36505;52.512;13.460;2023-04-10T01:32:16;22.33;;;12.45;;
50549;SDS011;36505;52.512;13.460;2023-04-10T01:34:45;31.88;;;13.38;;
50549;SDS011;36505;52.512;13.460;2023-04-10T01:37:32;22.48;;;11.57;;
50549;SDS011;36505;52.512;13.460;2023-04-10T01:40:02;27.23;;;13.48;;
50549;SDS011;36505;52.512;13.460;2023-04-10T01:42:33;22.90;;;11.65;;
50549;SDS011;36505;52.512;13.460;2023-04-10T01:45:03;22.27;;;11.68;;
50549;SDS011;36505;52.512;13.460;2023-04-10T01:47:33;27.48;;;14.13;;
50549;SDS011;36505;52.512;13.460;2023-04-10T01:49:58;22.77;;;12.20;;
50549;SDS011;36505;52.512;13.460;2023-04-10T01:52:26;24.73;;;12.50;;
50549;SDS011;36505;52.512;13.460;2023-04-10T01:54:52;22.63;;;12.70;;
50549;SDS011;36505;52.512;13.460;2023-04-10T01:57:18;29.10;;;13.55;;
50549;SDS011;36505;52.512;13.460;2023-04-10T01:59:45;23.67;;;12.48;;
50549;SDS011;36505;52.512;13.460;2023-04-10T02:02:10;30.65;;;15.13;;
50549;SDS011;36505;52.512;13.460;2023-04-10T02:04:36;29.23;;;12.80;;
50549;SDS011;36505;52.512;13.460;2023-04-10T02:07:02;26.20;;;13.43;;
50549;SDS011;36505;52.512;13.460;2023-04-10T02:12:09;33.30;;;15.20;;
50549;SDS011;36505;52.512;13.460;2023-04-10T02:14:47;27.48;;;13.15;;
50549;SDS011;36505;52.512;13.460;2023-04-10T02:17:15;26.50;;;13.30;;
50549;SDS011;36505;52.512;13.460;2023-04-10T02:19:45;30.20;;;13.18;;
50549;SDS011;36505;52.512;13.460;2023-04-10T02:22:12;30.90;;;14.85;;
50549;SDS011;36505;52.512;13.460;2023-04-10T02:24:40;35.83;;;16.35;;
50549;SDS011;36505;52.512;13.460;2023-04-10T02:27:05;31.90;;;14.88;;
50549;SDS011;36505;52.512;13.460;2023-04-10T02:29:30;25.60;;;13.20;;
50549;SDS011;36505;52.512;13.460;2023-04-10T02:31:56;32.75;;;13.77;;
50549;SDS011;36505;52.512;13.460;2023-04-10T02:34:21;25.75;;;14.13;;
50549;SDS011;36505;52.512;13.460;2023-04-10T02:36:46;28.00;;;13.88;;
50549;SDS011;36505;52.512;13.460;2023-04-10T02:39:12;36.08;;;16.98;;
50549;SDS011;36505;52.512;13.460;2023-04-10T02:41:37;31.48;;;16.63;;
50549;SDS011;36505;52.512;13.460;2023-04-10T02:44:02;30.75;;;15.00;;
50549;SDS011;36505;52.512;13.460;2023-04-10T02:46:28;26.35;;;14.57;;
50549;SDS011;36505;52.512;13.460;2023-04-10T02:48:53;30.35;;;15.23;;
50549;SDS011;36505;52.512;13.460;2023-04-10T02:51:19;29.67;;;13.55;;
50549;SDS011;36505;52.512;13.460;2023-04-10T02:53:45;29.50;;;13.98;;
50549;SDS011;36505;52.512;13.460;2023-04-10T02:56:10;26.10;;;14.07;;
50549;SDS011;36505;52.512;13.460;2023-04-10T02:58:36;30.20;;;15.45;;
50549;SDS011;36505;52.512;13.460;2023-04-10T03:01:03;35.88;;;16.05;;
50549;SDS011;36505;52.512;13.460;2023-04-10T03:03:29;34.15;;;16.75;;
50549;SDS011;36505;52.512;13.460;2023-04-10T03:05:55;34.38;;;15.98;;
50549;SDS011;36505;52.512;13.460;2023-04-10T03:08:20;31.23;;;14.93;;
50549;SDS011;36505;52.512;13.460;2023-04-10T03:10:46;31.58;;;14.95;;
50549;SDS011;36505;52.512;13.460;2023-04-10T03:13:15;31.52;;;15.80;;
50549;SDS011;36505;52.512;13.460;2023-04-10T03:15:40;31.05;;;15.20;;
50549;SDS011;36505;52.512;13.460;2023-04-10T03:18:06;34.67;;;16.77;;
50549;SDS011;36505;52.512;13.460;2023-04-10T03:20:34;31.67;;;15.10;;
50549;SDS011;36505;52.512;13.460;2023-04-10T03:23:00;31.85;;;16.02;;
50549;SDS011;36505;52.512;13.460;2023-04-10T03:25:25;35.80;;;16.27;;
50549;SDS011;36505;52.512;13.460;2023-04-10T03:27:51;30.83;;;15.68;;
50549;SDS011;36505;52.512;13.460;2023-04-10T03:30:17;30.88;;;15.55;;
50549;SDS011;36505;52.512;13.460;2023-04-10T03:32:42;33.80;;;15.60;;
50549;SDS011;36505;52.512;13.460;2023-04-10T03:40:06;34.03;;;15.98;;
50549;SDS011;36505;52.512;13.460;2023-04-10T03:42:33;29.77;;;15.98;;
50549;SDS011;36505;52.512;13.460;2023-04-10T03:44:59;38.15;;;17.05;;
50549;SDS011;36505;52.512;13.460;2023-04-10T03:47:28;34.90;;;16.25;;
50549;SDS011;36505;52.512;13.460;2023-04-10T03:49:54;31.88;;;18.00;;
50549;SDS011;36505;52.512;13.460;2023-04-10T03:52:19;33.15;;;16.85;;
50549;SDS011;36505;52.512;13.460;2023-04-10T03:54:44;29.40;;;16.50;;
50549;SDS011;36505;52.512;13.460;2023-04-10T03:57:10;33.05;;;16.05;;
50549;SDS011;36505;52.512;13.460;2023-04-10T03:59:35;41.80;;;15.90;;
50549;SDS011;36505;52.512;13.460;2023-04-10T04:02:01;31.08;;;16.10;;
50549;SDS011;36505;52.512;13.460;2023-04-10T04:04:26;32.33;;;16.75;;
50549;SDS011;36505;52.512;13.460;2023-04-10T04:06:52;31.70;;;16.88;;
50549;SDS011;36505;52.512;13.460;2023-04-10T04:09:17;34.42;;;17.33;;
50549;SDS011;36505;52.512;13.460;2023-04-10T04:11:42;29.67;;;15.45;;
50549;SDS011;36505;52.512;13.460;2023-04-10T04:14:08;31.60;;;17.08;;
50549;SDS011;36505;52.512;13.460;2023-04-10T04:16:33;29.20;;;14.85;;
50549;SDS011;36505;52.512;13.460;2023-04-10T04:18:58;32.13;;;15.90;;
50549;SDS011;36505;52.512;13.460;2023-04-10T04:21:24;29.25;;;16.33;;
50549;SDS011;36505;52.512;13.460;2023-04-10T04:23:49;30.85;;;15.43;;
50549;SDS011;36505;52.512;13.460;2023-04-10T04:26:15;29.50;;;16.30;;
50549;SDS011;36505;52.512;13.460;2023-04-10T04:28:41;31.63;;;15.95;;
50549;SDS011;36505;52.512;13.460;2023-04-10T04:31:06;36.55;;;16.55;;
50549;SDS011;36505;52.512;13.460;2023-04-10T04:33:31;28.13;;;14.70;;
50549;SDS011;36505;52.512;13.460;2023-04-10T04:35:57;31.25;;;16.00;;
50549;SDS011;36505;52.512;13.460;2023-04-10T04:38:22;28.23;;;15.50;;
50549;SDS011;36505;52.512;13.460;2023-04-10T04:40:47;31.38;;;14.85;;
50549;SDS011;36505;52.512;13.460;2023-04-10T04:43:13;30.58;;;15.25;;
50549;SDS011;36505;52.512;13.460;2023-04-10T04:45:38;34.17;;;15.90;;
50549;SDS011;36505;52.512;13.460;2023-04-10T04:48:03;31.33;;;16.65;;
50549;SDS011;36505;52.512;13.460;2023-04-10T04:50:29;36.00;;;15.27;;
50549;SDS011;36505;52.512;13.460;2023-04-10T04:52:54;29.90;;;15.75;;
50549;SDS011;36505;52.512;13.460;2023-04-10T04:55:20;34.30;;;16.45;;
50549;SDS011;36505;52.512;13.460;2023-04-10T04:57:45;28.48;;;15.52;;
50549;SDS011;36505;52.512;13.460;2023-04-10T05:00:10;29.50;;;15.30;;
50549;SDS011;36505;52.512;13.460;2023-04-10T05:02:36;27.40;;;14.98;;
50549;SDS011;36505;52.512;13.460;2023-04-10T05:05:02;33.75;;;16.88;;
50549;SDS011;36505;52.512;13.460;2023-04-10T05:07:27;27.95;;;15.90;;
50549;SDS011;36505;52.512;13.460;2023-04-10T05:09:53;30.35;;;16.63;;
50549;SDS011;36505;52.512;13.460;2023-04-10T05:12:18;28.67;;;15.02;;
50549;SDS011;36505;52.512;13.460;2023-04-10T05:14:44;26.13;;;14.63;;
50549;SDS011;36505;52.512;13.460;2023-04-10T05:17:10;29.27;;;13.85;;
50549;SDS011;36505;52.512;13.460;2023-04-10T05:19:35;24.17;;;14.32;;
50549;SDS011;36505;52.512;13.460;2023-04-10T05:22:01;28.80;;;14.13;;
50549;SDS011;36505;52.512;13.460;2023-04-10T05:24:26;27.02;;;13.57;;
50549;SDS011;36505;52.512;13.460;2023-04-10T05:26:51;25.48;;;13.50;;
50549;SDS011;36505;52.512;13.460;2023-04-10T05:29:17;26.27;;;12.32;;
50549;SDS011;36505;52.512;13.460;2023-04-10T05:31:42;23.38;;;13.00;;
50549;SDS011;36505;52.512;13.460;2023-04-10T05:34:07;24.95;;;12.32;;
50549;SDS011;36505;52.512;13.460;2023-04-10T05:36:33;23.02;;;12.18;;
50549;SDS011;36505;52.512;13.460;2023-04-10T05:38:59;23.25;;;12.23;;
50549;SDS011;36505;52.512;13.460;2023-04-10T05:41:24;20.20;;;10.93;;
50549;SDS011;36505;52.512;13.460;2023-04-10T05:43:49;25.15;;;11.63;;
50549;SDS011;36505;52.512;13.460;2023-04-10T05:46:15;20.52;;;11.82;;
50549;SDS011;36505;52.512;13.460;2023-04-10T05:48:40;18.58;;;11.00;;
50549;SDS011;36505;52.512;13.460;2023-04-10T05:51:06;18.85;;;12.10;;
50549;SDS011;36505;52.512;13.460;2023-04-10T05:53:31;20.50;;;11.07;;
50549;SDS011;36505;52.512;13.460;2023-04-10T05:55:57;19.38;;;11.65;;
50549;SDS011;36505;52.512;13.460;2023-04-10T05:58:24;20.80;;;12.30;;
50549;SDS011;36505;52.512;13.460;2023-04-10T06:00:50;19.48;;;11.75;;
50549;SDS011;36505;52.512;13.460;2023-04-10T06:03:16;19.23;;;10.70;;
50549;SDS011;36505;52.512;13.460;2023-04-10T06:05:42;20.38;;;11.20;;
50549;SDS011;36505;52.512;13.460;2023-04-10T06:08:07;24.02;;;11.93;;
50549;SDS011;36505;52.512;13.460;2023-04-10T06:10:33;17.65;;;11.55;;
50549;SDS011;36505;52.512;13.460;2023-04-10T06:12:58;18.77;;;10.70;;
50549;SDS011;36505;52.512;13.460;2023-04-10T06:15:24;16.92;;;10.77;;
50549;SDS011;36505;52.512;13.460;2023-04-10T06:17:50;17.25;;;10.23;;
50549;SDS011;36505;52.512;13.460;2023-04-10T06:20:15;17.67;;;10.90;;
50549;SDS011;36505;52.512;13.460;2023-04-10T06:22:41;17.15;;;9.80;;
50549;SDS011;36505;52.512;13.460;2023-04-10T06:25:06;17.63;;;10.82;;
50549;SDS011;36505;52.512;13.460;2023-04-10T06:27:32;19.13;;;11.23;;
50549;SDS011;36505;52.512;13.460;2023-04-10T06:29:59;17.58;;;10.90;;
50549;SDS011;36505;52.512;13.460;2023-04-10T06:32:25;16.33;;;11.20;;
50549;SDS011;36505;52.512;13.460;2023-04-10T06:34:50;19.35;;;11.25;;
50549;SDS011;36505;52.512;13.460;2023-04-10T06:37:16;23.13;;;10.85;;
50549;SDS011;36505;52.512;13.460;2023-04-10T06:39:42;16.27;;;11.30;;
50549;SDS011;36505;52.512;13.460;2023-04-10T06:42:07;20.77;;;11.88;;
50549;SDS011;36505;52.512;13.460;2023-04-10T06:44:33;23.90;;;11.52;;
50549;SDS011;36505;52.512;13.460;2023-04-10T06:46:58;18.42;;;11.77;;
50549;SDS011;36505;52.512;13.460;2023-04-10T06:49:23;19.85;;;12.63;;
50549;SDS011;36505;52.512;13.460;2023-04-10T06:51:49;18.63;;;12.35;;
50549;SDS011;36505;52.512;13.460;2023-04-10T06:54:15;19.92;;;12.98;;
50549;SDS011;36505;52.512;13.460;2023-04-10T06:56:40;21.77;;;13.98;;
50549;SDS011;36505;52.512;13.460;2023-04-10T06:59:06;23.17;;;15.50;;
50549;SDS011;36505;52.512;13.460;2023-04-10T07:01:31;25.52;;;15.55;;
50549;SDS011;36505;52.512;13.460;2023-04-10T07:03:56;26.75;;;16.50;;
50549;SDS011;36505;52.512;13.460;2023-04-10T07:06:22;24.92;;;16.35;;
50549;SDS011;36505;52.512;13.460;2023-04-10T07:08:48;27.25;;;17.20;;
50549;SDS011;36505;52.512;13.460;2023-04-10T07:11:13;28.83;;;16.85;;
50549;SDS011;36505;52.512;13.460;2023-04-10T07:13:39;26.05;;;16.50;;
50549;SDS011;36505;52.512;13.460;2023-04-10T07:16:04;26.10;;;17.30;;
50549;SDS011;36505;52.512;13.460;2023-04-10T07:18:32;26.40;;;18.35;;
50549;SDS011;36505;52.512;13.460;2023-04-10T07:20:57;27.13;;;18.25;;
50549;SDS011;36505;52.512;13.460;2023-04-10T07:23:23;29.70;;;19.45;;
50549;SDS011;36505;52.512;13.460;2023-04-10T07:25:48;29.60;;;18.48;;
50549;SDS011;36505;52.512;13.460;2023-04-10T07:28:13;28.15;;;19.05;;
50549;SDS011;36505;52.512;13.460;2023-04-10T07:30:39;29.80;;;19.90;;
50549;SDS011;36505;52.512;13.460;2023-04-10T07:33:04;27.83;;;18.42;;
50549;SDS011;36505;52.512;13.460;2023-04-10T07:35:30;27.90;;;19.70;;
50549;SDS011;36505;52.512;13.460;2023-04-10T07:37:55;25.75;;;18.33;;
50549;SDS011;36505;52.512;13.460;2023-04-10T07:40:20;27.88;;;19.35;;
50549;SDS011;36505;52.512;13.460;2023-04-10T07:42:46;29.02;;;18.33;;
50549;SDS011;36505;52.512;13.460;2023-04-10T07:45:14;26.20;;;18.65;;
50549;SDS011;36505;52.512;13.460;2023-04-10T07:47:40;23.40;;;16.73;;
50549;SDS011;36505;52.512;13.460;2023-04-10T07:50:06;29.80;;;18.48;;
50549;SDS011;36505;52.512;13.460;2023-04-10T07:52:32;24.52;;;16.95;;
50549;SDS011;36505;52.512;13.460;2023-04-10T07:55:00;22.05;;;16.05;;
50549;SDS011;36505;52.512;13.460;2023-04-10T07:57:28;26.60;;;17.92;;
50549;SDS011;36505;52.512;13.460;2023-04-10T07:59:53;24.85;;;16.55;;
50549;SDS011;36505;52.512;13.460;2023-04-10T08:02:19;24.42;;;17.00;;
50549;SDS011;36505;52.512;13.460;2023-04-10T08:04:45;24.30;;;17.05;;
50549;SDS011;36505;52.512;13.460;2023-04-10T08:07:10;24.83;;;16.27;;
50549;SDS011;36505;52.512;13.460;2023-04-10T08:09:36;27.30;;;17.67;;
50549;SDS011;36505;52.512;13.460;2023-04-10T08:12:01;25.40;;;17.17;;
50549;SDS011;36505;52.512;13.460;2023-04-10T08:14:27;26.48;;;17.52;;
50549;SDS011;36505;52.512;13.460;2023-04-10T08:16:52;24.25;;;16.90;;
50549;SDS011;36505;52.512;13.460;2023-04-10T08:19:18;25.90;;;18.05;;
50549;SDS011;36505;52.512;13.460;2023-04-10T08:21:43;25.65;;;17.55;;
50549;SDS011;36505;52.512;13.460;2023-04-10T08:24:09;26.17;;;18.85;;
50549;SDS011;36505;52.512;13.460;2023-04-10T08:26:36;24.83;;;18.00;;
50549;SDS011;36505;52.512;13.460;2023-04-10T08:29:02;24.05;;;17.83;;
50549;SDS011;36505;52.512;13.460;2023-04-10T08:31:28;28.77;;;18.27;;
50549;SDS011;36505;52.512;13.460;2023-04-10T08:33:53;21.95;;;16.92;;
50549;SDS011;36505;52.512;13.460;2023-04-10T08:36:19;24.90;;;17.55;;
50549;SDS011;36505;52.512;13.460;2023-04-10T08:38:45;29.90;;;18.00;;
50549;SDS011;36505;52.512;13.460;2023-04-10T08:41:14;25.40;;;17.83;;
50549;SDS011;36505;52.512;13.460;2023-04-10T08:43:42;26.92;;;16.83;;
50549;SDS011;36505;52.512;13.460;2023-04-10T08:46:10;27.38;;;16.90;;
50549;SDS011;36505;52.512;13.460;2023-04-10T08:51:20;22.23;;;15.55;;
50549;SDS011;36505;52.512;13.460;2023-04-10T08:53:50;23.42;;;14.60;;
50549;SDS011;36505;52.512;13.460;2023-04-10T08:56:21;23.80;;;14.18;;
50549;SDS011;36505;52.512;13.460;2023-04-10T08:58:47;22.17;;;14.15;;
50549;SDS011;36505;52.512;13.460;2023-04-10T09:01:15;19.85;;;14.20;;
50549;SDS011;36505;52.512;13.460;2023-04-10T09:03:46;24.20;;;15.38;;
50549;SDS011;36505;52.512;13.460;2023-04-10T09:06:12;22.40;;;14.77;;
50549;SDS011;36505;52.512;13.460;2023-04-10T09:08:37;22.30;;;15.13;;
50549;SDS011;36505;52.512;13.460;2023-04-10T09:11:04;22.20;;;14.05;;
50549;SDS011;36505;52.512;13.460;2023-04-10T09:13:37;24.08;;;14.25;;
50549;SDS011;36505;52.512;13.460;2023-04-10T09:16:04;26.23;;;15.13;;
50549;SDS011;36505;52.512;13.460;2023-04-10T09:21:05;22.02;;;13.55;;
50549;SDS011;36505;52.512;13.460;2023-04-10T09:23:31;20.95;;;13.32;;
50549;SDS011;36505;52.512;13.460;2023-04-10T09:25:56;22.55;;;14.05;;
50549;SDS011;36505;52.512;13.460;2023-04-10T09:28:22;20.55;;;14.50;;
50549;SDS011;36505;52.512;13.460;2023-04-10T09:30:47;19.45;;;12.32;;
50549;SDS011;36505;52.512;13.460;2023-04-10T09:35:48;21.15;;;11.90;;
50549;SDS011;36505;52.512;13.460;2023-04-10T09:38:17;22.63;;;12.85;;
50549;SDS011;36505;52.512;13.460;2023-04-10T09:40:44;23.63;;;13.45;;
50549;SDS011;36505;52.512;13.460;2023-04-10T09:43:17;20.08;;;12.00;;
50549;SDS011;36505;52.512;13.460;2023-04-10T09:45:46;20.50;;;13.07;;
50549;SDS011;36505;52.512;13.460;2023-04-10T09:48:19;15.25;;;10.18;;
50549;SDS011;36505;52.512;13.460;2023-04-10T09:50:45;19.27;;;11.55;;
50549;SDS011;36505;52.512;13.460;2023-04-10T09:53:13;19.67;;;11.50;;
50549;SDS011;36505;52.512;13.460;2023-04-10T09:55:40;18.48;;;11.35;;
50549;SDS011;36505;52.512;13.460;2023-04-10T09:58:06;17.75;;;11.10;;
50549;SDS011;36505;52.512;13.460;2023-04-10T10:00:42;19.02;;;11.25;;
50549;SDS011;36505;52.512;13.460;2023-04-10T10:03:16;25.52;;;12.82;;
50549;SDS011;36505;52.512;13.460;2023-04-10T10:05:51;21.35;;;11.93;;
50549;SDS011;36505;52.512;13.460;2023-04-10T10:08:17;21.15;;;12.07;;
50549;SDS011;36505;52.512;13.460;2023-04-10T10:10:47;21.30;;;12.80;;
50549;SDS011;36505;52.512;13.460;2023-04-10T10:13:27;22.30;;;13.02;;
50549;SDS011;36505;52.512;13.460;2023-04-10T10:21:02;21.48;;;12.35;;
50549;SDS011;36505;52.512;13.460;2023-04-10T10:23:29;19.88;;;11.23;;
50549;SDS011;36505;52.512;13.460;2023-04-10T10:25:57;21.55;;;11.50;;
50549;SDS011;36505;52.512;13.460;2023-04-10T10:28:24;17.90;;;11.20;;
50549;SDS011;36505;52.512;13.460;2023-04-10T10:30:52;20.45;;;11.88;;
50549;SDS011;36505;52.512;13.460;2023-04-10T10:33:19;17.92;;;10.98;;
50549;SDS011;36505;52.512;13.460;2023-04-10T10:35:44;19.70;;;11.45;;
50549;SDS011;36505;52.512;13.460;2023-04-10T10:38:10;23.27;;;11.30;;
50549;SDS011;36505;52.512;13.460;2023-04-10T10:43:36;13.52;;;8.35;;
50549;SDS011;36505;52.512;13.460;2023-04-10T10:48:54;13.73;;;7.88;;
50549;SDS011;36505;52.512;13.460;2023-04-10T10:51:41;17.45;;;8.45;;
50549;SDS011;36505;52.512;13.460;2023-04-10T10:54:27;13.63;;;8.57;;
50549;SDS011;36505;52.512;13.460;2023-04-10T10:56:58;12.43;;;7.53;;
50549;SDS011;36505;52.512;13.460;2023-04-10T11:00:06;15.10;;;7.93;;
50549;SDS011;36505;52.512;13.460;2023-04-10T11:02:15;16.25;;;9.02;;
50549;SDS011;36505;52.512;13.460;2023-04-10T11:04:45;17.48;;;8.93;;
50549;SDS011;36505;52.512;13.460;2023-04-10T11:07:13;12.52;;;7.43;;
50549;SDS011;36505;52.512;13.460;2023-04-10T11:09:52;17.40;;;8.55;;
50549;SDS011;36505;52.512;13.460;2023-04-10T11:12:22;13.38;;;7.85;;
50549;SDS011;36505;52.512;13.460;2023-04-10T11:14:56;13.18;;;7.90;;
50549;SDS011;36505;52.512;13.460;2023-04-10T11:18:08;14.48;;;7.80;;
50549;SDS011;36505;52.512;13.460;2023-04-10T11:20:19;14.57;;;8.23;;
50549;SDS011;36505;52.512;13.460;2023-04-10T11:23:08;19.45;;;8.48;;
50549;SDS011;36505;52.512;13.460;2023-04-10T11:25:56;15.43;;;8.63;;
50549;SDS011;36505;52.512;13.460;2023-04-10T11:31:03;16.88;;;8.10;;
50549;SDS011;36505;52.512;13.460;2023-04-10T11:33:39;14.77;;;8.05;;
50549;SDS011;36505;52.512;13.460;2023-04-10T11:36:05;16.67;;;7.82;;
50549;SDS011;36505;52.512;13.460;2023-04-10T11:38:31;14.90;;;7.55;;
50549;SDS011;36505;52.512;13.460;2023-04-10T11:41:00;15.45;;;6.93;;
50549;SDS011;36505;52.512;13.460;2023-04-10T11:43:28;10.35;;;6.65;;
50549;SDS011;36505;52.512;13.460;2023-04-10T11:46:00;12.65;;;6.60;;
50549;SDS011;36505;52.512;13.460;2023-04-10T11:48:30;11.52;;;6.80;;
50549;SDS011;36505;52.512;13.460;2023-04-10T11:50:56;12.27;;;6.78;;
50549;SDS011;36505;52.512;13.460;2023-04-10T11:53:21;12.10;;;6.32;;
50549;SDS011;36505;52.512;13.460;2023-04-10T11:55:47;12.43;;;6.45;;
50549;SDS011;36505;52.512;13.460;2023-04-10T11:58:26;13.30;;;7.05;;
50549;SDS011;36505;52.512;13.460;2023-04-10T12:00:59;10.48;;;6.28;;
50549;SDS011;36505;52.512;13.460;2023-04-10T12:06:07;12.73;;;7.32;;
50549;SDS011;36505;52.512;13.460;2023-04-10T12:08:38;13.77;;;6.65;;
50549;SDS011;36505;52.512;13.460;2023-04-10T12:11:05;14.48;;;6.95;;
50549;SDS011;36505;52.512;13.460;2023-04-10T12:13:31;13.90;;;6.60;;
50549;SDS011;36505;52.512;13.460;2023-04-10T12:15:57;13.10;;;6.65;;
50549;SDS011;36505;52.512;13.460;2023-04-10T12:18:28;9.88;;;6.43;;
50549;SDS011;36505;52.512;13.460;2023-04-10T12:20:57;13.13;;;6.53;;
50549;SDS011;36505;52.512;13.460;2023-04-10T12:23:24;16.17;;;7.68;;
50549;SDS011;36505;52.512;13.460;2023-04-10T12:25:51;9.65;;;6.40;;
50549;SDS011;36505;52.512;13.460;2023-04-10T12:28:21;8.65;;;5.80;;
50549;SDS011;36505;52.512;13.460;2023-04-10T12:30:50;9.55;;;5.93;;
50549;SDS011;36505;52.512;13.460;2023-04-10T12:33:22;9.52;;;5.82;;
50549;SDS011;36505;52.512;13.460;2023-04-10T12:35:48;9.88;;;5.38;;
50549;SDS011;36505;52.512;13.460;2023-04-10T12:38:15;13.65;;;6.45;;
50549;SDS011;36505;52.512;13.460;2023-04-10T12:40:59;9.85;;;5.88;;
50549;SDS011;36505;52.512;13.460;2023-04-10T12:43:31;9.60;;;5.60;;
50549;SDS011;36505;52.512;13.460;2023-04-10T12:45:58;9.55;;;6.07;;
50549;SDS011;36505;52.512;13.460;2023-04-10T12:48:24;12.20;;;6.03;;
50549;SDS011;36505;52.512;13.460;2023-04-10T12:50:50;14.27;;;6.40;;
50549;SDS011;36505;52.512;13.460;2023-04-10T12:53:16;11.70;;;6.68;;
50549;SDS011;36505;52.512;13.460;2023-04-10T12:55:41;11.15;;;5.88;;
50549;SDS011;36505;52.512;13.460;2023-04-10T12:58:22;12.23;;;6.50;;
50549;SDS011;36505;52.512;13.460;2023-04-10T13:00:52;12.00;;;6.38;;
50549;SDS011;36505;52.512;13.460;2023-04-10T13:03:20;9.95;;;6.00;;
50549;SDS011;36505;52.512;13.460;2023-04-10T13:05:46;8.30;;;5.30;;
50549;SDS011;36505;52.512;13.460;2023-04-10T13:08:12;9.13;;;4.82;;
50549;SDS011;36505;52.512;13.460;2023-04-10T13:10:38;13.30;;;5.72;;
50549;SDS011;36505;52.512;13.460;2023-04-10T13:13:04;8.25;;;5.18;;
50549;SDS011;36505;52.512;13.460;2023-04-10T13:15:31;9.57;;;5.80;;
50549;SDS011;36505;52.512;13.460;2023-04-10T13:17:58;12.82;;;7.03;;
50549;SDS011;36505;52.512;13.460;2023-04-10T13:20:24;13.80;;;6.50;;
50549;SDS011;36505;52.512;13.460;2023-04-10T13:22:49;11.13;;;5.75;;
50549;SDS011;36505;52.512;13.460;2023-04-10T13:25:15;11.98;;;6.00;;
50549;SDS011;36505;52.512;13.460;2023-04-10T13:27:41;10.88;;;5.70;;
50549;SDS011;36505;52.512;13.460;2023-04-10T13:30:06;11.18;;;7.10;;
50549;SDS011;36505;52.512;13.460;2023-04-10T13:32:32;12.85;;;7.38;;
50549;SDS011;36505;52.512;13.460;2023-04-10T13:34:57;13.48;;;6.15;;
50549;SDS011;36505;52.512;13.460;2023-04-10T13:37:23;15.70;;;7.00;;
50549;SDS011;36505;52.512;13.460;2023-04-10T13:39:48;23.30;;;6.20;;
50549;SDS011;36505;52.512;13.460;2023-04-10T13:42:13;13.05;;;6.55;;
50549;SDS011;36505;52.512;13.460;2023-04-10T13:44:39;18.02;;;6.00;;
50549;SDS011;36505;52.512;13.460;2023-04-10T13:47:04;13.63;;;6.68;;
50549;SDS011;36505;52.512;13.460;2023-04-10T13:49:30;14.80;;;7.25;;
50549;SDS011;36505;52.512;13.460;2023-04-10T13:51:55;12.52;;;6.50;;
50549;SDS011;36505;52.512;13.460;2023-04-10T13:54:22;12.52;;;7.20;;
50549;SDS011;36505;52.512;13.460;2023-04-10T13:56:47;13.23;;;6.60;;
50549;SDS011;36505;52.512;13.460;2023-04-10T13:59:14;9.07;;;5.95;;
50549;SDS011;36505;52.512;13.460;2023-04-10T14:01:40;8.73;;;5.03;;
50549;SDS011;36505;52.512;13.460;2023-04-10T14:04:05;12.85;;;5.95;;
50549;SDS011;36505;52.512;13.460;2023-04-10T14:06:30;13.93;;;6.03;;
50549;SDS011;36505;52.512;13.460;2023-04-10T14:08:56;10.82;;;6.05;;
50549;SDS011;36505;52.512;13.460;2023-04-10T14:11:21;12.35;;;5.90;;
50549;SDS011;36505;52.512;13.460;2023-04-10T14:13:47;12.77;;;5.82;;
50549;SDS011;36505;52.512;13.460;2023-04-10T14:16:13;13.25;;;5.50;;
50549;SDS011;36505;52.512;13.460;2023-04-10T14:18:38;9.30;;;5.22;;
50549;SDS011;36505;52.512;13.460;2023-04-10T14:21:04;9.80;;;6.03;;
50549;SDS011;36505;52.512;13.460;2023-04-10T14:23:30;9.63;;;5.47;;
50549;SDS011;36505;52.512;13.460;2023-04-10T14:25:55;15.40;;;6.85;;
50549;SDS011;36505;52.512;13.460;2023-04-10T14:28:21;11.05;;;6.93;;
50549;SDS011;36505;52.512;13.460;2023-04-10T14:30:47;14.38;;;8.48;;
50549;SDS011;36505;52.512;13.460;2023-04-10T14:33:13;13.95;;;7.07;;
50549;SDS011;36505;52.512;13.460;2023-04-10T14:35:39;15.75;;;7.38;;
50549;SDS011;36505;52.512;13.460;2023-04-10T14:38:05;13.68;;;7.60;;
50549;SDS011;36505;52.512;13.460;2023-04-10T14:40:30;17.10;;;7.55;;
50549;SDS011;36505;52.512;13.460;2023-04-10T14:42:56;15.98;;;7.30;;
50549;SDS011;36505;52.512;13.460;2023-04-10T14:45:21;13.18;;;7.90;;
50549;SDS011;36505;52.512;13.460;2023-04-10T14:47:46;12.52;;;6.95;;
50549;SDS011;36505;52.512;13.460;2023-04-10T14:50:12;13.20;;;7.03;;
50549;SDS011;36505;52.512;13.460;2023-04-10T14:52:37;11.75;;;7.15;;
50549;SDS011;36505;52.512;13.460;2023-04-10T14:55:03;14.70;;;8.48;;